createdAt,value
2019-03-22T00:00:01.838Z,5.59
2019-03-22T00:01:01.751Z,5.67
2019-03-22T00:02:01.668Z,5.67
2019-03-22T00:03:01.586Z,5.78
2019-03-22T00:04:01.517Z,5.67
2019-03-22T00:05:01.416Z,5.74
2019-03-22T00:06:01.337Z,5.78
2019-03-22T00:07:01.248Z,5.78
2019-03-22T00:08:01.164Z,5.75
2019-03-22T00:09:01.085Z,5.62
2019-03-22T00:10:00.996Z,5.59
2019-03-22T00:11:00.916Z,5.60
2019-03-22T00:12:00.830Z,5.75
2019-03-22T00:13:00.750Z,5.68
2019-03-22T00:14:00.662Z,5.68
2019-03-22T00:15:00.578Z,5.72
2019-03-22T00:16:00.494Z,5.77
2019-03-22T00:17:00.410Z,5.71
2019-03-22T00:18:00.328Z,5.60
2019-03-22T00:19:00.243Z,5.63
2019-03-22T00:20:00.371Z,5.52
2019-03-22T00:21:00.076Z,5.57
2019-03-22T00:21:59.993Z,5.54
2019-03-22T00:22:59.909Z,5.54
2019-03-22T00:23:59.825Z,5.56
2019-03-22T00:24:59.743Z,5.60
2019-03-22T00:25:59.657Z,5.63
2019-03-22T00:26:59.574Z,5.72
2019-03-22T00:27:59.492Z,5.74
2019-03-22T00:28:59.408Z,5.74
2019-03-22T00:29:59.322Z,5.78
2019-03-22T00:30:59.238Z,5.67
2019-03-22T00:31:59.154Z,5.67
2019-03-22T00:32:59.071Z,5.71
2019-03-22T00:33:58.987Z,5.67
2019-03-22T00:34:58.905Z,5.62
2019-03-22T00:35:58.819Z,5.68
2019-03-22T00:36:58.736Z,5.67
2019-03-22T00:37:58.651Z,5.57
2019-03-22T00:38:58.570Z,5.57
2019-03-22T00:39:58.515Z,5.53
2019-03-22T00:40:58.401Z,5.50
2019-03-22T00:41:58.316Z,5.52
2019-03-22T00:42:58.234Z,5.47
2019-03-22T00:43:58.150Z,5.52
2019-03-22T00:44:58.066Z,5.39
2019-03-22T00:45:57.982Z,5.35
2019-03-22T00:46:57.897Z,5.34
2019-03-22T00:47:57.814Z,5.36
2019-03-22T00:48:57.733Z,5.36
2019-03-22T00:49:57.645Z,5.38
2019-03-22T00:50:57.561Z,5.38
2019-03-22T00:51:57.479Z,5.36
2019-03-22T00:52:57.396Z,5.36
2019-03-22T00:53:57.309Z,5.35
2019-03-22T00:54:57.228Z,5.32
2019-03-22T00:55:57.144Z,5.41
2019-03-22T00:56:57.059Z,5.38
2019-03-22T00:57:56.974Z,5.31
2019-03-22T00:58:56.940Z,5.26
2019-03-22T00:59:56.807Z,5.26
2019-03-22T01:00:56.725Z,5.34
2019-03-22T01:01:56.640Z,5.31
2019-03-22T01:02:56.555Z,5.26
2019-03-22T01:03:56.471Z,5.29
2019-03-22T01:04:56.389Z,5.24
2019-03-22T01:05:56.302Z,5.32
2019-03-22T01:06:56.221Z,5.31
2019-03-22T01:07:56.139Z,5.21
2019-03-22T01:08:56.223Z,5.16
2019-03-22T01:09:55.965Z,5.11
2019-03-22T01:10:55.885Z,5.14
2019-03-22T01:11:55.801Z,5.20
2019-03-22T01:12:55.715Z,5.23
2019-03-22T01:13:55.639Z,5.29
2019-03-22T01:14:55.546Z,5.26
2019-03-22T01:15:55.463Z,5.21
2019-03-22T01:16:55.381Z,5.20
2019-03-22T01:17:55.299Z,5.26
2019-03-22T01:18:55.213Z,5.26
2019-03-22T01:19:55.128Z,5.18
2019-03-22T01:20:55.076Z,5.26
2019-03-22T01:21:54.959Z,5.20
2019-03-22T01:22:54.874Z,5.20
2019-03-22T01:23:54.792Z,5.26
2019-03-22T01:24:54.708Z,5.29
2019-03-22T01:25:54.623Z,5.23
2019-03-22T01:26:54.539Z,5.28
2019-03-22T01:27:54.454Z,5.32
2019-03-22T01:28:54.372Z,5.34
2019-03-22T01:29:54.287Z,5.34
2019-03-22T01:30:54.203Z,5.39
2019-03-22T01:31:54.119Z,5.35
2019-03-22T01:32:54.035Z,5.34
2019-03-22T01:33:53.950Z,5.29
2019-03-22T01:34:53.869Z,5.35
2019-03-22T01:35:53.783Z,5.34
2019-03-22T01:36:53.698Z,5.20
2019-03-22T01:37:53.614Z,5.13
2019-03-22T01:38:53.532Z,5.02
2019-03-22T01:39:53.499Z,5.05
2019-03-22T01:40:53.363Z,5.14
2019-03-22T01:41:53.278Z,5.08
2019-03-22T01:42:53.195Z,5.11
2019-03-22T01:43:53.110Z,5.05
2019-03-22T01:44:53.028Z,5.11
2019-03-22T01:45:52.941Z,5.11
2019-03-22T01:46:52.858Z,5.02
2019-03-22T01:47:52.773Z,5.00
2019-03-22T01:48:52.691Z,5.06
2019-03-22T01:49:52.605Z,5.08
2019-03-22T01:50:52.526Z,5.08
2019-03-22T01:51:52.438Z,4.98
2019-03-22T01:52:52.357Z,4.85
2019-03-22T01:53:52.268Z,4.83
2019-03-22T01:54:52.187Z,4.95
2019-03-22T01:55:52.103Z,4.80
2019-03-22T01:56:52.018Z,4.88
2019-03-22T01:57:53.840Z,4.92
2019-03-22T01:58:51.847Z,4.77
2019-03-22T01:59:51.763Z,4.95
2019-03-22T02:00:51.679Z,4.92
2019-03-22T02:01:51.595Z,4.92
2019-03-22T02:02:51.511Z,4.77
2019-03-22T02:03:51.426Z,4.91
2019-03-22T02:04:51.343Z,4.80
2019-03-22T02:05:51.257Z,4.99
2019-03-22T02:06:51.173Z,4.96
2019-03-22T02:07:51.090Z,5.00
2019-03-22T02:08:51.006Z,4.92
2019-03-22T02:09:50.920Z,4.95
2019-03-22T02:10:50.837Z,5.00
2019-03-22T02:11:50.754Z,5.00
2019-03-22T02:12:50.668Z,5.06
2019-03-22T02:13:50.583Z,5.10
2019-03-22T02:14:50.498Z,4.99
2019-03-22T02:15:50.415Z,4.98
2019-03-22T02:16:50.330Z,4.95
2019-03-22T02:17:50.248Z,5.02
2019-03-22T02:18:50.164Z,4.99
2019-03-22T02:19:50.083Z,5.02
2019-03-22T02:20:49.994Z,5.00
2019-03-22T02:21:49.908Z,5.05
2019-03-22T02:22:49.824Z,5.06
2019-03-22T02:23:52.028Z,5.11
2019-03-22T02:24:49.657Z,5.06
2019-03-22T02:25:49.571Z,5.13
2019-03-22T02:26:49.486Z,5.14
2019-03-22T02:27:49.403Z,5.14
2019-03-22T02:28:49.318Z,5.03
2019-03-22T02:29:49.234Z,5.13
2019-03-22T02:30:49.151Z,5.05
2019-03-22T02:31:49.069Z,4.99
2019-03-22T02:32:48.983Z,4.98
2019-03-22T02:33:48.919Z,4.99
2019-03-22T02:34:48.814Z,4.96
2019-03-22T02:35:48.729Z,4.99
2019-03-22T02:36:48.645Z,4.91
2019-03-22T02:37:48.559Z,4.98
2019-03-22T02:38:48.484Z,4.93
2019-03-22T02:39:48.392Z,4.91
2019-03-22T02:40:48.313Z,4.98
2019-03-22T02:41:48.224Z,4.96
2019-03-22T02:42:48.137Z,4.92
2019-03-22T02:43:48.055Z,5.00
2019-03-22T02:44:47.970Z,5.00
2019-03-22T02:45:47.886Z,4.93
2019-03-22T02:46:47.800Z,4.95
2019-03-22T02:47:47.718Z,4.91
2019-03-22T02:48:47.633Z,4.87
2019-03-22T02:49:47.547Z,4.87
2019-03-22T02:50:47.463Z,4.85
2019-03-22T02:51:47.379Z,4.85
2019-03-22T02:52:47.298Z,4.77
2019-03-22T02:53:47.210Z,4.74
2019-03-22T02:54:47.127Z,4.62
2019-03-22T02:55:47.070Z,4.62
2019-03-22T02:56:46.961Z,4.66
2019-03-22T02:57:46.881Z,4.66
2019-03-22T02:58:46.787Z,4.65
2019-03-22T02:59:46.804Z,4.72
2019-03-22T03:00:46.624Z,4.65
2019-03-22T03:01:46.537Z,4.76
2019-03-22T03:02:46.449Z,4.74
2019-03-22T03:03:46.368Z,4.68
2019-03-22T03:04:46.286Z,4.68
2019-03-22T03:05:46.300Z,4.65
2019-03-22T03:06:46.119Z,4.69
2019-03-22T03:07:46.028Z,4.66
2019-03-22T03:08:45.948Z,4.68
2019-03-22T03:09:45.859Z,4.61
2019-03-22T03:10:45.824Z,4.55
2019-03-22T03:11:45.692Z,4.58
2019-03-22T03:12:45.610Z,4.61
2019-03-22T03:13:45.522Z,4.65
2019-03-22T03:14:45.560Z,4.66
2019-03-22T03:15:45.351Z,4.61
2019-03-22T03:16:45.317Z,4.65
2019-03-22T03:17:45.197Z,4.68
2019-03-22T03:18:45.101Z,4.61
2019-03-22T03:19:45.018Z,4.61
2019-03-22T03:20:44.928Z,4.62
2019-03-22T03:21:44.844Z,4.65
2019-03-22T03:22:44.762Z,4.59
2019-03-22T03:23:44.677Z,4.61
2019-03-22T03:24:44.592Z,4.62
2019-03-22T03:25:44.511Z,4.69
2019-03-22T03:26:44.474Z,4.69
2019-03-22T03:27:44.344Z,4.59
2019-03-22T03:28:44.253Z,4.58
2019-03-22T03:29:44.173Z,4.47
2019-03-22T03:30:44.085Z,4.50
2019-03-22T03:31:44.050Z,4.44
2019-03-22T03:32:43.927Z,4.43
2019-03-22T03:33:43.905Z,4.44
2019-03-22T03:34:43.748Z,4.38
2019-03-22T03:35:43.681Z,4.48
2019-03-22T03:36:43.577Z,4.46
2019-03-22T03:37:43.507Z,4.44
2019-03-22T03:38:43.411Z,4.44
2019-03-22T03:39:43.322Z,4.44
2019-03-22T03:40:43.241Z,4.43
2019-03-22T03:41:43.254Z,4.41
2019-03-22T03:42:43.070Z,4.48
2019-03-22T03:43:42.984Z,4.41
2019-03-22T03:44:42.904Z,4.44
2019-03-22T03:45:42.816Z,4.30
2019-03-22T03:46:42.786Z,4.29
2019-03-22T03:47:42.645Z,4.11
2019-03-22T03:48:42.562Z,4.22
2019-03-22T03:49:42.499Z,4.32
2019-03-22T03:50:42.401Z,4.22
2019-03-22T03:51:42.311Z,4.28
2019-03-22T03:52:42.223Z,4.25
2019-03-22T03:53:42.137Z,4.30
2019-03-22T03:54:42.059Z,4.30
2019-03-22T03:55:41.968Z,4.10
2019-03-22T03:56:41.887Z,4.25
2019-03-22T03:57:41.802Z,4.19
2019-03-22T03:58:52.319Z,4.11
2019-03-22T03:59:41.629Z,4.18
2019-03-22T04:00:41.547Z,4.22
2019-03-22T04:01:41.459Z,4.26
2019-03-22T04:02:41.374Z,4.30
2019-03-22T04:03:41.290Z,4.26
2019-03-22T04:04:41.207Z,4.29
2019-03-22T04:05:41.121Z,4.38
2019-03-22T04:06:41.037Z,4.46
2019-03-22T04:07:40.951Z,4.54
2019-03-22T04:08:40.866Z,4.54
2019-03-22T04:09:40.780Z,4.50
2019-03-22T04:10:40.703Z,4.50
2019-03-22T04:11:40.612Z,4.55
2019-03-22T04:12:40.627Z,4.47
2019-03-22T04:13:40.443Z,4.55
2019-03-22T04:14:40.357Z,4.44
2019-03-22T04:15:40.274Z,4.47
2019-03-22T04:16:40.190Z,4.54
2019-03-22T04:17:40.103Z,4.48
2019-03-22T04:18:40.032Z,4.43
2019-03-22T04:19:39.935Z,4.46
2019-03-22T04:20:39.848Z,4.38
2019-03-22T04:21:39.762Z,4.43
2019-03-22T04:22:39.683Z,4.44
2019-03-22T04:23:39.595Z,4.41
2019-03-22T04:24:39.600Z,4.52
2019-03-22T04:25:39.426Z,4.56
2019-03-22T04:26:39.342Z,4.52
2019-03-22T04:27:39.355Z,4.61
2019-03-22T04:28:39.172Z,4.58
2019-03-22T04:29:39.086Z,4.52
2019-03-22T04:30:39.000Z,4.54
2019-03-22T04:31:38.917Z,4.44
2019-03-22T04:32:38.838Z,4.43
2019-03-22T04:33:38.746Z,4.36
2019-03-22T04:34:38.661Z,4.28
2019-03-22T04:35:38.576Z,4.23
2019-03-22T04:36:38.497Z,4.30
2019-03-22T04:37:38.409Z,4.37
2019-03-22T04:38:38.325Z,4.46
2019-03-22T04:39:38.237Z,4.32
2019-03-22T04:40:38.158Z,4.34
2019-03-22T04:41:38.068Z,4.26
2019-03-22T04:42:37.985Z,4.25
2019-03-22T04:43:37.899Z,4.26
2019-03-22T04:44:37.814Z,4.20
2019-03-22T04:45:37.729Z,4.25
2019-03-22T04:46:37.644Z,4.19
2019-03-22T04:47:37.558Z,4.16
2019-03-22T04:48:37.577Z,4.12
2019-03-22T04:49:37.393Z,4.15
2019-03-22T04:50:37.309Z,4.11
2019-03-22T04:51:37.220Z,4.18
2019-03-22T04:52:37.135Z,4.19
2019-03-22T04:53:37.049Z,4.20
2019-03-22T04:54:36.966Z,4.23
2019-03-22T04:55:36.884Z,4.29
2019-03-22T04:56:36.796Z,4.29
2019-03-22T04:57:36.710Z,4.40
2019-03-22T04:58:36.625Z,4.38
2019-03-22T04:59:36.540Z,4.41
2019-03-22T05:00:36.456Z,4.29
2019-03-22T05:01:36.370Z,4.41
2019-03-22T05:02:36.284Z,4.48
2019-03-22T05:03:36.352Z,4.48
2019-03-22T05:04:36.123Z,4.47
2019-03-22T05:05:36.031Z,4.38
2019-03-22T05:06:35.946Z,4.29
2019-03-22T05:07:35.861Z,4.25
2019-03-22T05:08:35.778Z,4.22
2019-03-22T05:09:35.691Z,4.30
2019-03-22T05:10:35.607Z,4.30
2019-03-22T05:11:35.522Z,4.28
2019-03-22T05:12:35.439Z,4.30
2019-03-22T05:13:35.351Z,4.25
2019-03-22T05:14:35.369Z,4.28
2019-03-22T05:15:35.183Z,4.29
2019-03-22T05:16:35.098Z,4.48
2019-03-22T05:17:35.013Z,4.30
2019-03-22T05:18:34.928Z,4.40
2019-03-22T05:19:34.844Z,4.52
2019-03-22T05:20:34.760Z,4.48
2019-03-22T05:21:34.673Z,4.32
2019-03-22T05:22:34.592Z,4.52
2019-03-22T05:23:34.505Z,4.52
2019-03-22T05:24:34.420Z,4.56
2019-03-22T05:25:34.335Z,4.47
2019-03-22T05:26:34.254Z,4.58
2019-03-22T05:27:34.175Z,4.55
2019-03-22T05:28:34.082Z,4.52
2019-03-22T05:29:33.996Z,4.44
2019-03-22T05:30:33.911Z,4.46
2019-03-22T05:31:33.827Z,4.29
2019-03-22T05:32:33.742Z,4.23
2019-03-22T05:33:33.655Z,4.22
2019-03-22T05:34:33.572Z,4.36
2019-03-22T05:35:33.486Z,4.28
2019-03-22T05:36:33.403Z,4.37
2019-03-22T05:37:33.322Z,4.44
2019-03-22T05:38:33.232Z,4.36
2019-03-22T05:39:33.148Z,4.30
2019-03-22T05:40:33.063Z,4.36
2019-03-22T05:41:32.979Z,4.25
2019-03-22T05:42:32.893Z,4.43
2019-03-22T05:43:32.811Z,4.40
2019-03-22T05:44:32.723Z,4.54
2019-03-22T05:45:32.648Z,4.50
2019-03-22T05:46:32.555Z,4.50
2019-03-22T05:47:32.468Z,4.52
2019-03-22T05:48:32.384Z,4.59
2019-03-22T05:49:32.299Z,4.56
2019-03-22T05:50:32.214Z,4.54
2019-03-22T05:51:32.129Z,4.62
2019-03-22T05:52:32.046Z,4.52
2019-03-22T05:53:31.960Z,4.55
2019-03-22T05:54:31.876Z,4.52
2019-03-22T05:55:31.792Z,4.55
2019-03-22T05:56:31.706Z,4.52
2019-03-22T05:57:31.621Z,4.56
2019-03-22T05:58:31.538Z,4.58
2019-03-22T05:59:41.931Z,4.58
2019-03-22T06:00:31.368Z,4.62
2019-03-22T06:01:31.283Z,4.61
2019-03-22T06:02:31.201Z,4.52
2019-03-22T06:03:31.114Z,4.46
2019-03-22T06:04:31.031Z,4.48
2019-03-22T06:05:30.943Z,4.46
2019-03-22T06:06:30.858Z,4.43
2019-03-22T06:07:30.778Z,4.50
2019-03-22T06:08:30.690Z,4.47
2019-03-22T06:09:30.604Z,4.48
2019-03-22T06:10:30.520Z,4.55
2019-03-22T06:11:30.437Z,4.54
2019-03-22T06:12:30.354Z,4.52
2019-03-22T06:13:30.265Z,4.54
2019-03-22T06:14:30.183Z,4.52
2019-03-22T06:15:30.099Z,4.59
2019-03-22T06:16:30.020Z,4.62
2019-03-22T06:17:29.931Z,4.59
2019-03-22T06:18:29.843Z,4.66
2019-03-22T06:19:29.759Z,4.73
2019-03-22T06:20:29.675Z,4.76
2019-03-22T06:21:29.590Z,4.77
2019-03-22T06:22:29.506Z,4.76
2019-03-22T06:23:29.422Z,4.77
2019-03-22T06:24:29.340Z,4.96
2019-03-22T06:25:29.253Z,4.99
2019-03-22T06:26:29.168Z,5.10
2019-03-22T06:27:29.083Z,5.05
2019-03-22T06:28:28.999Z,5.06
2019-03-22T06:29:28.915Z,5.03
2019-03-22T06:30:28.833Z,5.03
2019-03-22T06:31:28.747Z,5.08
2019-03-22T06:32:28.663Z,5.03
2019-03-22T06:33:28.577Z,5.06
2019-03-22T06:34:28.497Z,5.05
2019-03-22T06:35:28.412Z,5.10
2019-03-22T06:36:28.325Z,5.18
2019-03-22T06:37:28.240Z,5.02
2019-03-22T06:38:28.157Z,5.02
2019-03-22T06:39:28.071Z,5.16
2019-03-22T06:40:27.991Z,5.10
2019-03-22T06:41:27.905Z,5.17
2019-03-22T06:42:27.823Z,5.17
2019-03-22T06:43:27.735Z,5.21
2019-03-22T06:44:27.652Z,5.29
2019-03-22T06:45:27.566Z,5.18
2019-03-22T06:46:27.484Z,5.28
2019-03-22T06:47:27.399Z,5.31
2019-03-22T06:48:27.317Z,5.36
2019-03-22T06:49:27.231Z,5.41
2019-03-22T06:50:27.145Z,5.36
2019-03-22T06:51:27.064Z,5.57
2019-03-22T06:52:26.979Z,5.62
2019-03-22T06:53:26.896Z,5.83
2019-03-22T06:54:31.945Z,5.97
2019-03-22T06:55:26.728Z,6.08
2019-03-22T06:56:26.647Z,6.14
2019-03-22T06:57:26.559Z,6.14
2019-03-22T06:58:26.478Z,6.24
2019-03-22T06:59:26.392Z,6.41
2019-03-22T07:00:26.315Z,6.51
2019-03-22T07:01:26.228Z,6.52
2019-03-22T07:02:26.143Z,6.75
2019-03-22T07:03:26.059Z,6.73
2019-03-22T07:04:25.976Z,6.70
2019-03-22T07:05:25.895Z,6.88
2019-03-22T07:06:25.809Z,6.84
2019-03-22T07:07:25.727Z,6.93
2019-03-22T07:08:25.651Z,7.08
2019-03-22T07:09:25.560Z,7.23
2019-03-22T07:10:25.478Z,7.20
2019-03-22T07:11:25.396Z,7.39
2019-03-22T07:12:25.313Z,7.53
2019-03-22T07:13:25.236Z,7.73
2019-03-22T07:14:25.148Z,7.86
2019-03-22T07:15:25.065Z,7.88
2019-03-22T07:16:24.983Z,7.88
2019-03-22T07:17:24.899Z,8.04
2019-03-22T07:18:24.817Z,8.18
2019-03-22T07:19:24.735Z,8.22
2019-03-22T07:20:24.652Z,8.25
2019-03-22T07:21:24.572Z,8.40
2019-03-22T07:22:24.488Z,8.44
2019-03-22T07:23:24.410Z,8.47
2019-03-22T07:24:24.327Z,8.54
2019-03-22T07:25:24.342Z,8.60
2019-03-22T07:26:24.161Z,8.57
2019-03-22T07:27:24.079Z,8.61
2019-03-22T07:28:24.000Z,8.73
2019-03-22T07:29:23.918Z,8.77
2019-03-22T07:30:23.835Z,8.88
2019-03-22T07:31:23.753Z,8.91
2019-03-22T07:32:23.673Z,8.98
2019-03-22T07:33:23.591Z,9.05
2019-03-22T07:34:23.510Z,9.22
2019-03-22T07:35:23.427Z,9.22
2019-03-22T07:36:23.345Z,9.35
2019-03-22T07:37:23.268Z,9.42
2019-03-22T07:38:23.185Z,9.38
2019-03-22T07:39:23.105Z,9.43
2019-03-22T07:40:23.023Z,9.52
2019-03-22T07:41:22.942Z,9.49
2019-03-22T07:42:22.862Z,9.61
2019-03-22T07:43:22.780Z,9.72
2019-03-22T07:44:22.701Z,9.83
2019-03-22T07:45:22.618Z,9.92
2019-03-22T07:46:22.538Z,9.98
2019-03-22T07:47:22.458Z,10.22
2019-03-22T07:48:22.378Z,10.37
2019-03-22T07:49:22.297Z,10.43
2019-03-22T07:50:22.216Z,10.56
2019-03-22T07:51:22.135Z,10.74
2019-03-22T07:52:22.055Z,10.92
2019-03-22T07:53:21.975Z,10.93
2019-03-22T07:54:21.895Z,11.29
2019-03-22T07:55:21.819Z,11.51
2019-03-22T07:56:21.735Z,11.69
2019-03-22T07:57:21.655Z,11.79
2019-03-22T07:58:21.576Z,11.93
2019-03-22T07:59:21.497Z,12.02
2019-03-22T08:00:30.207Z,12.13
2019-03-22T08:01:21.391Z,12.09
2019-03-22T08:02:21.256Z,12.23
2019-03-22T08:03:21.179Z,12.23
2019-03-22T08:04:21.099Z,12.24
2019-03-22T08:05:21.022Z,12.34
2019-03-22T08:06:21.039Z,12.33
2019-03-22T08:07:20.861Z,12.30
2019-03-22T08:09:20.704Z,12.41
2019-03-22T08:10:20.662Z,12.42
2019-03-22T08:11:20.577Z,12.48
2019-03-22T08:12:20.469Z,12.45
2019-03-22T08:13:20.404Z,12.51
2019-03-22T08:14:20.322Z,12.51
2019-03-22T08:15:20.246Z,12.39
2019-03-22T08:16:20.159Z,12.39
2019-03-22T08:17:20.088Z,12.44
2019-03-22T08:18:20.046Z,12.60
2019-03-22T08:19:19.919Z,12.66
2019-03-22T08:20:19.876Z,12.67
2019-03-22T08:22:22.308Z,12.71
2019-03-22T08:23:19.642Z,12.73
2019-03-22T08:24:19.531Z,12.79
2019-03-22T08:25:19.453Z,12.82
2019-03-22T08:26:19.376Z,12.81
2019-03-22T08:27:19.310Z,12.86
2019-03-22T08:28:19.263Z,12.94
2019-03-22T08:29:19.179Z,13.02
2019-03-22T08:30:19.107Z,13.07
2019-03-22T08:31:18.992Z,13.07
2019-03-22T08:32:18.953Z,13.10
2019-03-22T08:33:18.841Z,13.15
2019-03-22T08:34:18.760Z,13.09
2019-03-22T08:35:18.725Z,13.17
2019-03-22T08:36:18.608Z,13.14
2019-03-22T08:37:18.539Z,13.21
2019-03-22T08:38:18.456Z,13.28
2019-03-22T08:39:18.380Z,13.43
2019-03-22T08:40:18.306Z,13.43
2019-03-22T08:41:18.249Z,13.38
2019-03-22T08:42:18.153Z,13.50
2019-03-22T08:43:18.114Z,13.45
2019-03-22T08:44:18.009Z,13.53
2019-03-22T08:45:17.924Z,13.59
2019-03-22T08:46:17.875Z,13.68
2019-03-22T08:47:17.822Z,13.63
2019-03-22T08:48:17.708Z,13.58
2019-03-22T08:49:17.778Z,13.65
2019-03-22T08:50:17.557Z,13.68
2019-03-22T08:51:17.471Z,13.71
2019-03-22T08:52:17.407Z,13.76
2019-03-22T08:53:17.322Z,13.84
2019-03-22T08:54:17.244Z,13.81
2019-03-22T08:55:17.190Z,13.92
2019-03-22T08:56:17.094Z,13.86
2019-03-22T08:57:17.020Z,13.92
2019-03-22T08:58:18.401Z,14.01
2019-03-22T08:59:16.872Z,13.96
2019-03-22T09:00:16.809Z,13.96
2019-03-22T09:01:16.745Z,13.95
2019-03-22T09:02:16.644Z,14.11
2019-03-22T09:03:16.604Z,14.14
2019-03-22T09:04:16.494Z,14.28
2019-03-22T09:05:16.416Z,14.32
2019-03-22T09:06:16.396Z,14.34
2019-03-22T09:07:16.276Z,14.32
2019-03-22T09:08:16.333Z,14.35
2019-03-22T09:09:18.739Z,14.46
2019-03-22T09:10:16.083Z,14.39
2019-03-22T09:11:18.126Z,14.50
2019-03-22T09:12:15.891Z,14.42
2019-03-22T09:13:15.816Z,14.47
2019-03-22T09:14:15.806Z,14.47
2019-03-22T09:15:15.667Z,14.46
2019-03-22T09:16:15.604Z,14.60
2019-03-22T09:17:15.541Z,14.65
2019-03-22T09:19:15.368Z,14.74
2019-03-22T09:20:15.318Z,14.85
2019-03-22T09:21:15.220Z,14.84
2019-03-22T09:22:15.152Z,14.85
2019-03-22T09:23:15.067Z,14.90
2019-03-22T09:24:14.993Z,14.97
2019-03-22T09:25:14.919Z,14.93
2019-03-22T09:26:14.843Z,14.90
2019-03-22T09:27:14.798Z,14.84
2019-03-22T09:28:14.694Z,15.01
2019-03-22T09:29:14.619Z,14.84
2019-03-22T09:30:14.554Z,14.80
2019-03-22T09:31:14.471Z,14.94
2019-03-22T09:32:14.396Z,15.01
2019-03-22T09:33:14.374Z,14.87
2019-03-22T09:34:14.247Z,14.98
2019-03-22T09:35:14.179Z,14.98
2019-03-22T09:36:14.098Z,14.98
2019-03-22T09:37:14.028Z,14.97
2019-03-22T09:38:14.001Z,15.10
2019-03-22T09:39:13.874Z,15.10
2019-03-22T09:40:13.799Z,15.13
2019-03-22T09:41:13.733Z,15.20
2019-03-22T09:42:13.669Z,15.08
2019-03-22T09:43:13.577Z,15.13
2019-03-22T09:44:13.509Z,15.30
2019-03-22T09:45:14.473Z,15.34
2019-03-22T09:46:13.384Z,15.41
2019-03-22T09:47:16.343Z,15.42
2019-03-22T09:48:13.204Z,15.61
2019-03-22T09:49:13.128Z,15.59
2019-03-22T09:50:13.064Z,15.71
2019-03-22T09:51:13.009Z,15.70
2019-03-22T09:52:12.907Z,15.67
2019-03-22T09:53:12.833Z,15.78
2019-03-22T09:54:12.758Z,15.94
2019-03-22T09:55:14.323Z,15.97
2019-03-22T09:56:12.660Z,15.99
2019-03-22T09:57:12.546Z,16.03
2019-03-22T09:58:12.495Z,16.12
2019-03-22T09:59:12.518Z,16.26
2019-03-22T10:00:12.343Z,16.18
2019-03-22T10:01:23.184Z,16.15
2019-03-22T10:02:12.225Z,16.00
2019-03-22T10:03:12.094Z,16.03
2019-03-22T10:04:12.124Z,15.91
2019-03-22T10:05:11.946Z,16.10
2019-03-22T10:06:11.873Z,16.07
2019-03-22T10:07:11.941Z,16.08
2019-03-22T10:08:11.800Z,16.10
2019-03-22T10:09:11.672Z,16.25
2019-03-22T10:10:11.616Z,16.35
2019-03-22T10:11:11.505Z,16.45
2019-03-22T10:12:11.521Z,16.52
2019-03-22T10:13:11.386Z,16.48
2019-03-22T10:14:11.285Z,16.45
2019-03-22T10:15:11.226Z,16.45
2019-03-22T10:16:11.150Z,16.38
2019-03-22T10:17:11.093Z,16.47
2019-03-22T10:18:13.653Z,16.40
2019-03-22T10:19:10.917Z,16.27
2019-03-22T10:20:10.844Z,16.42
2019-03-22T10:21:21.879Z,16.60
2019-03-22T10:22:10.697Z,16.70
2019-03-22T10:23:10.625Z,16.80
2019-03-22T10:24:10.554Z,16.81
2019-03-22T10:25:10.530Z,16.85
2019-03-22T10:26:10.417Z,16.93
2019-03-22T10:27:10.333Z,17.13
2019-03-22T10:28:10.299Z,17.29
2019-03-22T10:29:10.202Z,17.36
2019-03-22T10:30:10.115Z,17.46
2019-03-22T10:31:10.043Z,17.44
2019-03-22T10:32:09.970Z,17.67
2019-03-22T10:33:22.150Z,17.67
2019-03-22T10:34:09.872Z,17.79
2019-03-22T10:35:09.754Z,17.95
2019-03-22T10:36:09.720Z,17.95
2019-03-22T10:37:09.608Z,18.11
2019-03-22T10:38:16.069Z,18.13
2019-03-22T10:39:09.476Z,18.43
2019-03-22T10:40:09.420Z,18.50
2019-03-22T10:41:09.325Z,18.37
2019-03-22T10:42:09.249Z,18.31
2019-03-22T10:43:09.282Z,18.00
2019-03-22T10:44:09.109Z,18.07
2019-03-22T10:45:09.035Z,18.25
2019-03-22T10:46:09.023Z,17.96
2019-03-22T10:47:08.894Z,17.92
2019-03-22T10:48:08.937Z,17.96
2019-03-22T10:49:08.755Z,18.02
2019-03-22T10:50:08.680Z,18.19
2019-03-22T10:51:09.018Z,18.35
2019-03-22T10:52:08.663Z,18.44
2019-03-22T10:53:08.488Z,18.76
2019-03-22T10:54:08.396Z,19.20
2019-03-22T10:55:28.213Z,18.95
2019-03-22T10:56:08.255Z,18.59
2019-03-22T10:57:08.185Z,18.65
2019-03-22T10:58:20.156Z,18.80
2019-03-22T10:59:08.043Z,18.87
2019-03-22T11:00:07.972Z,18.87
2019-03-22T11:01:08.386Z,19.06
2019-03-22T11:02:08.038Z,19.21
2019-03-22T11:03:07.763Z,19.27
2019-03-22T11:05:07.622Z,19.36
2019-03-22T11:06:07.550Z,19.35
2019-03-22T11:07:07.481Z,19.54
2019-03-22T11:08:07.417Z,19.94
2019-03-22T11:09:07.344Z,20.18
2019-03-22T11:10:07.273Z,20.49
2019-03-22T11:11:07.206Z,20.54
2019-03-22T11:12:12.121Z,20.61
2019-03-22T11:13:07.066Z,20.56
2019-03-22T11:14:07.002Z,20.49
2019-03-22T11:15:06.927Z,20.51
2019-03-22T11:16:06.864Z,20.65
2019-03-22T11:17:06.792Z,20.72
2019-03-22T11:18:06.725Z,20.90
2019-03-22T11:19:06.655Z,20.98
2019-03-22T11:20:06.622Z,21.30
2019-03-22T11:21:06.522Z,21.09
2019-03-22T11:22:06.451Z,21.46
2019-03-22T11:23:06.382Z,21.67
2019-03-22T11:24:06.315Z,21.53
2019-03-22T11:25:06.248Z,21.27
2019-03-22T11:26:06.179Z,21.06
2019-03-22T11:27:06.115Z,21.27
2019-03-22T11:28:06.046Z,21.20
2019-03-22T11:29:05.977Z,21.56
2019-03-22T11:30:05.912Z,21.44
2019-03-22T11:31:05.850Z,21.53
2019-03-22T11:32:12.510Z,21.85
2019-03-22T11:33:05.709Z,21.97
2019-03-22T11:34:05.642Z,21.82
2019-03-22T11:35:05.576Z,22.04
2019-03-22T11:36:05.520Z,22.47
2019-03-22T11:37:05.611Z,22.52
2019-03-22T11:38:05.376Z,22.38
2019-03-22T11:39:14.974Z,22.63
2019-03-22T11:40:05.243Z,22.71
2019-03-22T11:41:05.177Z,22.72
2019-03-22T11:42:05.112Z,22.42
2019-03-22T11:43:08.843Z,22.17
2019-03-22T11:44:04.982Z,22.16
2019-03-22T11:45:04.914Z,22.08
2019-03-22T11:46:04.851Z,22.30
2019-03-22T11:47:04.786Z,22.35
2019-03-22T11:48:04.718Z,22.86
2019-03-22T11:49:04.655Z,23.42
2019-03-22T11:50:04.588Z,23.64
2019-03-22T11:51:04.530Z,23.75
2019-03-22T11:52:04.458Z,23.58
2019-03-22T11:53:04.393Z,23.22
2019-03-22T11:54:04.328Z,22.71
2019-03-22T11:55:04.264Z,22.92
2019-03-22T11:56:04.199Z,23.17
2019-03-22T11:57:04.135Z,23.40
2019-03-22T11:58:04.073Z,23.61
2019-03-22T11:59:04.006Z,23.55
2019-03-22T12:00:03.943Z,23.68
2019-03-22T12:01:03.877Z,23.75
2019-03-22T12:02:03.813Z,23.65
2019-03-22T12:03:03.749Z,23.71
2019-03-22T12:04:03.696Z,23.42
2019-03-22T12:05:03.621Z,23.12
2019-03-22T12:06:03.570Z,23.50
2019-03-22T12:07:03.493Z,23.43
2019-03-22T12:08:03.431Z,23.40
2019-03-22T12:09:03.366Z,23.80
2019-03-22T12:10:03.303Z,23.78
2019-03-22T12:11:03.241Z,23.79
2019-03-22T12:12:03.177Z,23.85
2019-03-22T12:13:03.209Z,23.67
2019-03-22T12:14:03.052Z,23.49
2019-03-22T12:15:02.984Z,23.38
2019-03-22T12:16:02.922Z,23.09
2019-03-22T12:17:02.858Z,22.78
2019-03-22T12:18:02.794Z,22.63
2019-03-22T12:19:02.730Z,22.94
2019-03-22T12:20:02.668Z,23.22
2019-03-22T12:21:02.602Z,23.40
2019-03-22T12:22:02.538Z,23.50
2019-03-22T12:23:02.475Z,23.40
2019-03-22T12:24:02.413Z,23.22
2019-03-22T12:25:02.348Z,22.77
2019-03-22T12:26:02.286Z,22.86
2019-03-22T12:27:02.220Z,22.72
2019-03-22T12:28:02.157Z,22.97
2019-03-22T12:29:02.092Z,23.42
2019-03-22T12:30:02.028Z,23.33
2019-03-22T12:31:01.970Z,23.45
2019-03-22T12:32:01.902Z,23.64
2019-03-22T12:33:01.835Z,23.55
2019-03-22T12:34:01.774Z,23.55
2019-03-22T12:35:01.715Z,23.80
2019-03-22T12:36:01.644Z,23.46
2019-03-22T12:37:01.579Z,23.20
2019-03-22T12:38:01.516Z,23.46
2019-03-22T12:39:01.453Z,23.49
2019-03-22T12:40:01.394Z,23.02
2019-03-22T12:41:01.325Z,22.93
2019-03-22T12:42:01.260Z,23.02
2019-03-22T12:43:01.197Z,23.12
2019-03-22T12:44:01.134Z,23.05
2019-03-22T12:45:01.072Z,23.46
2019-03-22T12:46:01.005Z,23.09
2019-03-22T12:47:00.939Z,22.72
2019-03-22T12:48:00.876Z,22.65
2019-03-22T12:49:00.810Z,22.69
2019-03-22T12:50:00.750Z,22.62
2019-03-22T12:51:00.682Z,22.79
2019-03-22T12:52:00.619Z,23.26
2019-03-22T12:53:00.557Z,23.11
2019-03-22T12:54:00.500Z,23.11
2019-03-22T12:55:00.424Z,22.74
2019-03-22T12:56:00.359Z,23.08
2019-03-22T12:57:00.295Z,23.42
2019-03-22T12:58:00.232Z,23.71
2019-03-22T12:59:00.175Z,23.72
2019-03-22T13:00:00.176Z,23.40
2019-03-22T13:01:00.053Z,23.02
2019-03-22T13:01:59.974Z,23.11
2019-03-22T13:02:59.910Z,23.22
2019-03-22T13:03:59.846Z,23.24
2019-03-22T13:04:59.779Z,22.93
2019-03-22T13:05:59.715Z,22.90
2019-03-22T13:06:59.653Z,22.71
2019-03-22T13:07:59.586Z,22.68
2019-03-22T13:08:59.524Z,22.17
2019-03-22T13:09:59.456Z,22.38